createdAt,value
2022-11-23T00:01:30.901Z,99415.03
2022-11-23T00:04:03.024Z,99415.97
2022-11-23T00:06:30.968Z,99414.22
2022-11-23T00:08:58.436Z,99416.88
2022-11-23T00:11:27.613Z,99411.19
2022-11-23T00:13:56.168Z,99418.50
2022-11-23T00:16:30.384Z,99422.91
2022-11-23T00:19:00.153Z,99417.56
2022-11-23T00:21:31.669Z,99429.78
2022-11-23T00:23:59.392Z,99422.75
2022-11-23T00:26:27.025Z,99431.56
2022-11-23T00:28:54.207Z,99433.34
2022-11-23T00:31:21.644Z,99434.13
2022-11-23T00:33:53.195Z,99427.94
2022-11-23T00:36:21.556Z,99439.34
2022-11-23T00:38:49.821Z,99436.69
2022-11-23T00:41:24.783Z,99436.66
2022-11-23T00:43:52.166Z,99432.34
2022-11-23T00:46:20.595Z,99440.25
2022-11-23T00:48:50.880Z,99442.03
2022-11-23T00:51:21.671Z,99440.06
2022-11-23T00:53:51.543Z,99439.22
2022-11-23T00:56:19.740Z,99443.56
2022-11-23T00:58:51.466Z,99424.28
2022-11-23T01:01:21.628Z,99440.91
2022-11-23T01:03:55.414Z,99451.38
2022-11-23T01:06:31.737Z,99437.38
2022-11-23T01:09:13.703Z,99439.94
2022-11-23T01:11:40.942Z,99438.19
2022-11-23T01:14:07.987Z,99451.25
2022-11-23T01:16:38.649Z,99445.25
2022-11-23T01:19:13.577Z,99452.25
2022-11-23T01:21:40.703Z,99453.03
2022-11-23T01:24:16.909Z,99456.56
2022-11-23T01:26:44.529Z,99454.84
2022-11-23T01:29:12.586Z,99455.84
2022-11-23T01:31:46.254Z,99457.44
2022-11-23T01:34:15.346Z,99459.25
2022-11-23T01:36:42.919Z,99459.19
2022-11-23T01:39:12.044Z,99463.69
2022-11-23T01:41:42.311Z,99468.72
2022-11-23T01:44:28.848Z,99467.22
2022-11-23T01:47:00.220Z,99466.34
2022-11-23T01:49:33.798Z,99469.00
2022-11-23T01:52:13.060Z,99467.84
2022-11-23T01:54:51.483Z,99466.31
2022-11-23T01:57:37.833Z,99467.19
2022-11-23T02:00:13.490Z,99468.81
2022-11-23T02:02:51.881Z,99461.66
2022-11-23T02:05:22.930Z,99466.88
2022-11-23T02:07:51.382Z,99478.28
2022-11-23T02:10:19.630Z,99481.78
2022-11-23T02:12:46.635Z,99486.16
2022-11-23T02:15:13.870Z,99482.69
2022-11-23T02:17:41.938Z,99487.03
2022-11-23T02:20:13.404Z,99488.25
2022-11-23T02:22:51.910Z,99490.03
2022-11-23T02:26:03.216Z,99489.88
2022-11-23T02:28:47.117Z,99492.38
2022-11-23T02:31:14.152Z,99482.94
2022-11-23T02:33:41.666Z,99496.22
2022-11-23T02:36:54.912Z,99492.75
2022-11-23T02:39:50.993Z,99500.63
2022-11-23T02:42:18.777Z,99491.91
2022-11-23T02:45:22.445Z,99488.94
2022-11-23T02:47:49.389Z,99490.09
2022-11-23T02:50:16.779Z,99501.50
2022-11-23T02:52:43.745Z,99500.34
2022-11-23T02:55:11.070Z,99497.06
2022-11-23T02:57:38.069Z,99497.97
2022-11-23T03:00:06.294Z,99499.44
2022-11-23T03:02:33.466Z,99495.00
2022-11-23T03:05:00.551Z,99488.88
2022-11-23T03:07:27.529Z,99481.00
2022-11-23T03:09:54.619Z,99490.94
2022-11-23T03:12:21.666Z,99489.03
2022-11-23T03:14:48.709Z,99496.09
2022-11-23T03:17:15.819Z,99495.34
2022-11-23T03:19:42.858Z,99491.72
2022-11-23T03:22:09.865Z,99500.31
2022-11-23T03:24:41.849Z,99502.00
2022-11-23T03:27:08.915Z,99504.03
2022-11-23T03:29:35.870Z,99489.97
2022-11-23T03:32:02.984Z,99501.44
2022-11-23T03:34:30.040Z,99507.22
2022-11-23T03:36:57.094Z,99499.34
2022-11-23T03:39:24.195Z,99502.22
2022-11-23T03:41:51.549Z,99506.63
2022-11-23T03:44:18.700Z,99504.63
2022-11-23T03:46:45.862Z,99500.25
2022-11-23T03:49:12.941Z,99501.94
2022-11-23T03:51:39.959Z,99500.19
2022-11-23T03:54:07.016Z,99502.03
2022-11-23T03:56:34.251Z,99504.88
2022-11-23T03:59:01.332Z,99499.59
2022-11-23T04:01:34.266Z,99503.09
2022-11-23T04:04:01.426Z,99505.78
2022-11-23T04:06:28.453Z,99512.81
2022-11-23T04:09:01.502Z,99504.13
2022-11-23T04:11:29.218Z,99512.81
2022-11-23T04:13:56.141Z,99509.22
2022-11-23T04:16:23.456Z,99505.69
2022-11-23T04:18:50.425Z,99512.69
2022-11-23T04:21:17.375Z,99507.41
2022-11-23T04:23:44.346Z,99511.75
2022-11-23T04:26:11.400Z,99508.25
2022-11-23T04:28:38.370Z,99497.00
2022-11-23T04:31:05.605Z,99506.72
2022-11-23T04:33:32.661Z,99503.22
2022-11-23T04:35:59.918Z,99509.34
2022-11-23T04:38:26.987Z,99499.72
2022-11-23T04:40:54.133Z,99503.22
2022-11-23T04:43:21.245Z,99499.81
2022-11-23T04:45:48.298Z,99508.63
2022-11-23T04:48:15.316Z,99503.44
2022-11-23T04:50:45.617Z,99500.91
2022-11-23T04:53:13.839Z,99502.78
2022-11-23T04:55:41.027Z,99497.63
2022-11-23T04:58:07.978Z,99498.63
2022-11-23T05:00:35.144Z,99497.84
2022-11-23T05:03:02.354Z,99497.06
2022-11-23T05:05:30.776Z,99498.91
2022-11-23T05:07:59.079Z,99493.75
2022-11-23T05:10:26.251Z,99494.63
2022-11-23T05:12:53.453Z,99499.91
2022-11-23T05:15:20.391Z,99492.91
2022-11-23T05:17:47.476Z,99499.88
2022-11-23T05:20:14.637Z,99497.22
2022-11-23T05:22:41.793Z,99495.38
2022-11-23T05:25:09.182Z,99497.97
2022-11-23T05:27:36.558Z,99495.31
2022-11-23T05:30:04.604Z,99499.63
2022-11-23T05:32:31.594Z,99502.22
2022-11-23T05:34:58.559Z,99495.16
2022-11-23T05:37:25.525Z,99496.88
2022-11-23T05:39:52.456Z,99507.47
2022-11-23T05:42:19.466Z,99496.91
2022-11-23T05:44:46.445Z,99508.25
2022-11-23T05:47:13.478Z,99502.13
2022-11-23T05:49:40.806Z,99501.22
2022-11-23T05:52:07.842Z,99509.94
2022-11-23T05:54:34.998Z,99503.88
2022-11-23T05:57:02.066Z,99502.03
2022-11-23T05:59:29.090Z,99509.09
2022-11-23T06:01:56.069Z,99512.63
2022-11-23T06:04:23.467Z,99508.16
2022-11-23T06:06:50.541Z,99499.50
2022-11-23T06:09:17.818Z,99503.75
2022-11-23T06:11:44.914Z,99495.88
2022-11-23T06:14:14.415Z,99501.13
2022-11-23T06:16:41.727Z,99504.66
2022-11-23T06:19:08.768Z,99512.53
2022-11-23T06:21:35.944Z,99507.34
2022-11-23T06:24:03.054Z,99515.47
2022-11-23T06:26:30.410Z,99511.81
2022-11-23T06:28:58.360Z,99513.75
2022-11-23T06:31:25.363Z,99520.72
2022-11-23T06:33:52.920Z,99514.63
2022-11-23T06:36:19.937Z,99513.56
2022-11-23T06:38:46.918Z,99514.41
2022-11-23T06:41:13.982Z,99516.19
2022-11-23T06:43:40.920Z,99514.47
2022-11-23T06:46:07.993Z,99517.09
2022-11-23T06:48:35.110Z,99516.31
2022-11-23T06:51:02.060Z,99519.88
2022-11-23T06:53:30.167Z,99524.25
2022-11-23T06:56:01.150Z,99531.34
2022-11-23T06:58:29.046Z,99532.34
2022-11-23T07:01:02.195Z,99531.50
2022-11-23T07:03:29.666Z,99530.69
2022-11-23T07:05:56.913Z,99545.59
2022-11-23T07:08:25.421Z,99544.81
2022-11-23T07:10:52.681Z,99541.34
2022-11-23T07:13:19.674Z,99551.91
2022-11-23T07:15:46.649Z,99554.56
2022-11-23T07:18:15.214Z,99558.06
2022-11-23T07:20:42.178Z,99562.44
2022-11-23T07:23:11.498Z,99572.03
2022-11-23T07:25:39.152Z,99561.59
2022-11-23T07:28:08.236Z,99573.00
2022-11-23T07:30:36.344Z,99583.44
2022-11-23T07:33:08.326Z,99583.44
2022-11-23T07:35:37.480Z,99578.22
2022-11-23T07:38:07.914Z,99581.81
2022-11-23T07:40:37.626Z,99580.88
2022-11-23T07:43:06.741Z,99591.34
2022-11-23T07:45:35.060Z,99597.44
2022-11-23T07:48:08.742Z,99599.22
2022-11-23T07:50:37.812Z,99587.84
2022-11-23T07:53:06.754Z,99591.25
2022-11-23T07:55:34.065Z,99597.38
2022-11-23T07:58:01.111Z,99602.63
2022-11-23T08:00:29.079Z,99598.22
2022-11-23T08:03:26.075Z,99603.41
2022-11-23T08:05:46.215Z,99608.63
2022-11-23T08:08:13.296Z,99609.50
2022-11-23T08:10:46.108Z,99620.81
2022-11-23T08:13:15.579Z,99619.06
2022-11-23T08:15:42.605Z,99605.00
2022-11-23T08:18:10.185Z,99608.44
2022-11-23T08:20:37.132Z,99599.63
2022-11-23T08:23:04.156Z,99601.31
2022-11-23T08:25:31.354Z,99600.38
2022-11-23T08:28:01.673Z,99613.41
2022-11-23T08:30:30.958Z,99602.88
2022-11-23T08:32:58.588Z,99604.50
2022-11-23T08:35:25.803Z,99604.44
2022-11-23T08:37:52.767Z,99610.50
2022-11-23T08:40:24.970Z,99622.72
2022-11-23T08:42:52.506Z,99616.50
2022-11-23T08:45:19.471Z,99616.47
2022-11-23T08:47:46.741Z,99626.91
2022-11-23T08:50:14.259Z,99629.47
2022-11-23T08:52:41.238Z,99615.41
2022-11-23T08:55:08.772Z,99616.25
2022-11-23T08:57:35.859Z,99620.56
2022-11-23T09:00:05.586Z,99624.88
2022-11-23T09:02:32.923Z,99612.63
2022-11-23T09:05:00.803Z,99617.13
2022-11-23T09:07:27.873Z,99612.75
2022-11-23T09:09:54.889Z,99616.19
2022-11-23T09:12:21.818Z,99618.59
2022-11-23T09:14:48.749Z,99610.88
2022-11-23T09:17:15.770Z,99613.41
2022-11-23T09:19:42.716Z,99607.25
2022-11-23T09:22:09.744Z,99610.78
2022-11-23T09:24:37.189Z,99609.69
2022-11-23T09:27:04.554Z,99603.47
2022-11-23T09:29:31.514Z,99606.19
2022-11-23T09:31:58.547Z,99600.78
2022-11-23T09:34:25.567Z,99590.22
2022-11-23T09:36:52.539Z,99595.63
2022-11-23T09:39:19.559Z,99580.81
2022-11-23T09:42:10.671Z,99585.84
2022-11-23T09:45:12.329Z,99568.22
2022-11-23T09:48:06.820Z,99569.94
2022-11-23T09:50:56.527Z,99563.78
2022-11-23T09:53:34.249Z,99571.63
2022-11-23T09:56:02.229Z,99557.59
2022-11-23T09:58:39.819Z,99549.81
2022-11-23T10:01:14.264Z,99541.72
2022-11-23T10:03:48.852Z,99549.53
2022-11-23T10:06:29.486Z,99541.66
2022-11-23T10:09:41.174Z,99539.00
2022-11-23T10:12:41.739Z,99536.53
2022-11-23T10:15:38.495Z,99527.84
2022-11-23T10:18:38.943Z,99531.88
2022-11-23T10:21:33.322Z,99524.75
2022-11-23T10:24:25.175Z,99535.16
2022-11-23T10:26:52.133Z,99527.25
2022-11-23T10:29:39.182Z,99528.00
2022-11-23T10:32:20.356Z,99522.72
2022-11-23T10:35:15.090Z,99533.97
2022-11-23T10:37:42.967Z,99519.09
2022-11-23T10:40:25.798Z,99526.88
2022-11-23T10:42:59.499Z,99515.59
2022-11-23T10:45:29.257Z,99520.84
2022-11-23T10:47:59.539Z,99524.91
2022-11-23T10:50:33.828Z,99528.19
2022-11-23T10:53:26.251Z,99518.28
2022-11-23T10:55:59.290Z,99516.19
2022-11-23T10:58:35.169Z,99507.34
2022-11-23T11:01:07.590Z,99506.50
2022-11-23T11:03:35.798Z,99500.53
2022-11-23T11:06:09.090Z,99500.31
2022-11-23T11:08:53.697Z,99494.88
2022-11-23T11:11:29.752Z,99495.75
2022-11-23T11:14:18.721Z,99500.84
2022-11-23T11:17:00.598Z,99504.13
2022-11-23T11:19:30.296Z,99494.25
2022-11-23T11:21:59.932Z,99485.03
2022-11-23T11:24:47.174Z,99482.75
2022-11-23T11:27:21.101Z,99482.50
2022-11-23T11:29:54.652Z,99475.28
2022-11-23T11:32:38.311Z,99465.69
2022-11-23T11:35:21.144Z,99475.41
2022-11-23T11:37:52.250Z,99474.53
2022-11-23T11:40:39.560Z,99452.59
2022-11-23T11:43:22.851Z,99454.00
2022-11-23T11:46:27.489Z,99452.41
2022-11-23T11:48:57.492Z,99430.50
2022-11-23T11:51:36.917Z,99434.84
2022-11-23T11:54:36.206Z,99426.50
2022-11-23T11:57:21.814Z,99424.38
2022-11-23T11:59:53.429Z,99419.50
2022-11-23T12:02:57.010Z,99415.09
2022-11-23T12:05:44.625Z,99416.72
2022-11-23T12:08:18.657Z,99415.75
2022-11-23T12:10:58.132Z,99412.75
2022-11-23T12:13:38.581Z,99410.63
2022-11-23T12:16:23.554Z,99408.97
2022-11-23T12:19:27.051Z,99409.81
2022-11-23T12:22:21.678Z,99408.16
2022-11-23T12:25:38.325Z,99411.81
2022-11-23T12:28:22.817Z,99404.97
2022-11-23T12:31:26.403Z,99399.84
2022-11-23T12:34:33.059Z,99395.53
2022-11-23T12:37:14.900Z,99394.69
2022-11-23T12:40:07.426Z,99393.31
2022-11-23T12:42:53.867Z,99388.34
2022-11-23T12:46:10.615Z,99387.97
2022-11-23T12:49:28.690Z,99393.19
2022-11-23T12:52:34.395Z,99383.56
2022-11-23T12:55:20.101Z,99375.56
2022-11-23T12:58:05.770Z,99371.88
2022-11-23T13:00:41.946Z,99371.72
2022-11-23T13:03:39.477Z,99374.19
2022-11-23T13:06:30.125Z,99370.69
2022-11-23T13:09:32.196Z,99375.22
2022-11-23T13:12:33.672Z,99378.06
2022-11-23T13:15:12.712Z,99380.00
2022-11-23T13:18:20.064Z,99383.88
2022-11-23T13:20:57.518Z,99374.78
2022-11-23T13:23:24.911Z,99384.53
2022-11-23T13:26:14.216Z,99384.59
2022-11-23T13:28:42.368Z,99392.25
2022-11-23T13:31:30.385Z,99390.75
2022-11-23T13:34:03.945Z,99395.00
2022-11-23T13:36:56.548Z,99400.22
2022-11-23T13:39:51.445Z,99402.78
2022-11-23T13:42:19.613Z,99405.53
2022-11-23T13:44:46.662Z,99415.28
2022-11-23T13:47:15.201Z,99423.06
2022-11-23T13:49:52.052Z,99421.72
2022-11-23T13:52:22.350Z,99428.28
2022-11-23T13:55:09.352Z,99439.28
2022-11-23T13:57:42.998Z,99444.16
2022-11-23T14:00:50.051Z,99437.53
2022-11-23T14:03:53.950Z,99436.13
2022-11-23T14:06:39.233Z,99435.50
2022-11-23T14:09:33.448Z,99445.31
2022-11-23T14:12:12.655Z,99432.34
2022-11-23T14:14:49.528Z,99444.84
2022-11-23T14:17:43.998Z,99447.66
2022-11-23T14:20:38.593Z,99458.44
2022-11-23T14:23:45.539Z,99451.66
2022-11-23T14:26:49.124Z,99466.69
2022-11-23T14:29:49.256Z,99459.78
2022-11-23T14:32:22.410Z,99471.31
2022-11-23T14:35:12.366Z,99476.63
2022-11-23T14:38:22.152Z,99488.94
2022-11-23T14:41:18.458Z,99478.47
2022-11-23T14:43:47.341Z,99482.97
2022-11-23T14:46:22.583Z,99498.72
2022-11-23T14:48:50.126Z,99498.75
2022-11-23T14:51:23.171Z,99504.94
2022-11-23T14:54:01.648Z,99504.97
2022-11-23T14:56:47.453Z,99511.97
2022-11-23T14:59:17.140Z,99514.63
2022-11-23T15:02:14.542Z,99520.81
2022-11-23T15:05:06.837Z,99525.25
2022-11-23T15:07:46.752Z,99523.53
2022-11-23T15:11:05.018Z,99532.31
2022-11-23T15:13:46.481Z,99534.97
2022-11-23T15:16:16.347Z,99540.22
2022-11-23T15:18:44.353Z,99547.28
2022-11-23T15:21:11.238Z,99542.06
2022-11-23T15:23:50.692Z,99535.06
2022-11-23T15:26:42.363Z,99543.84
2022-11-23T15:29:38.632Z,99529.00
2022-11-23T15:32:32.164Z,99509.78
2022-11-23T15:35:07.099Z,99516.81
2022-11-23T15:37:46.127Z,99531.69
2022-11-23T15:40:19.079Z,99527.34
2022-11-23T15:42:50.108Z,99510.72
2022-11-23T15:45:41.673Z,99497.69
2022-11-23T15:48:37.188Z,99503.03
2022-11-23T15:51:09.363Z,99509.13
2022-11-23T15:53:59.324Z,99513.56
2022-11-23T15:56:38.766Z,99519.72
2022-11-23T15:59:43.897Z,99532.81
2022-11-23T16:02:25.924Z,99550.34
2022-11-23T16:05:22.394Z,99571.34
2022-11-23T16:08:02.278Z,99557.31
2022-11-23T16:10:35.005Z,99569.56
2022-11-23T16:13:07.135Z,99568.72
2022-11-23T16:15:46.366Z,99573.97
2022-11-23T16:18:13.250Z,99588.00
2022-11-23T16:20:51.262Z,99598.47
2022-11-23T16:23:26.900Z,99594.16
2022-11-23T16:26:03.290Z,99606.44
2022-11-23T16:28:36.991Z,99609.88
2022-11-23T16:31:04.689Z,99609.78
2022-11-23T16:33:31.822Z,99608.03
2022-11-23T16:35:58.902Z,99619.38
2022-11-23T16:38:25.991Z,99623.72
2022-11-23T16:40:53.060Z,99628.94
2022-11-23T16:43:34.527Z,99624.69
2022-11-23T16:46:07.408Z,99636.88
2022-11-23T16:48:42.642Z,99634.28
2022-11-23T16:51:14.511Z,99643.00
2022-11-23T16:56:32.898Z,99659.66
2022-11-23T16:59:00.409Z,99663.03
2022-11-23T17:01:30.122Z,99663.88
2022-11-23T17:03:57.286Z,99675.25
2022-11-23T17:06:24.471Z,99673.53
2022-11-23T17:09:00.560Z,99684.09
2022-11-23T17:11:35.205Z,99692.81
2022-11-23T17:14:02.322Z,99693.69
2022-11-23T17:16:30.940Z,99697.19
2022-11-23T17:18:57.904Z,99692.78
2022-11-23T17:21:24.898Z,99688.47
2022-11-23T17:23:52.168Z,99703.38
2022-11-23T17:26:36.243Z,99712.25
2022-11-23T17:29:12.719Z,99711.34
2022-11-23T17:31:40.425Z,99715.63
2022-11-23T17:34:08.762Z,99720.88
2022-11-23T17:36:35.882Z,99719.13
2022-11-23T17:39:02.946Z,99729.66
2022-11-23T17:41:29.941Z,99727.06
2022-11-23T17:43:59.352Z,99722.69
2022-11-23T17:46:31.454Z,99721.00
2022-11-23T17:49:01.836Z,99727.16
2022-11-23T17:51:29.303Z,99736.81
2022-11-23T17:53:56.273Z,99742.94
2022-11-23T17:56:25.851Z,99749.97
2022-11-23T17:58:52.970Z,99754.34
2022-11-23T18:01:22.290Z,99749.16
2022-11-23T18:03:49.932Z,99755.28
2022-11-23T18:06:24.097Z,99760.56
2022-11-23T18:08:52.414Z,99758.88
2022-11-23T18:11:20.858Z,99768.50
2022-11-23T18:13:50.314Z,99772.03
2022-11-23T18:16:22.912Z,99777.31
2022-11-23T18:18:51.101Z,99786.09
2022-11-23T18:21:18.456Z,99793.06
2022-11-23T18:23:45.624Z,99794.88
2022-11-23T18:26:22.661Z,99797.53
2022-11-23T18:28:50.283Z,99803.63
2022-11-23T18:31:18.136Z,99799.31
2022-11-23T18:33:45.907Z,99798.44
2022-11-23T18:36:13.610Z,99811.56
2022-11-23T18:38:43.478Z,99811.59
2022-11-23T18:41:10.956Z,99804.59
2022-11-23T18:43:38.327Z,99807.25
2022-11-23T18:46:08.179Z,99824.72
2022-11-23T18:48:35.559Z,99816.88
2022-11-23T18:51:04.472Z,99821.25
2022-11-23T18:53:33.218Z,99811.66
2022-11-23T18:56:04.954Z,99818.63
2022-11-23T18:58:42.024Z,99816.94
2022-11-23T19:01:21.551Z,99819.56
2022-11-23T19:03:51.829Z,99843.13
2022-11-23T19:06:22.201Z,99842.25
2022-11-23T19:08:53.794Z,99841.38
2022-11-23T19:11:24.166Z,99848.34
2022-11-23T19:13:54.553Z,99848.34
2022-11-23T19:16:25.013Z,99858.84
2022-11-23T19:19:03.833Z,99860.59
2022-11-23T19:21:34.379Z,99864.97
2022-11-23T19:24:02.410Z,99865.84
2022-11-23T19:26:30.652Z,99872.81
2022-11-23T19:28:59.562Z,99874.53
2022-11-23T19:31:31.714Z,99882.38
2022-11-23T19:34:06.036Z,99895.47
2022-11-23T19:36:38.250Z,99884.97
2022-11-23T19:39:06.611Z,99894.56
2022-11-23T19:41:33.701Z,99898.91
2022-11-23T19:44:01.975Z,99906.75
2022-11-23T19:46:31.139Z,99900.63
2022-11-23T19:48:59.141Z,99908.44
2022-11-23T19:51:28.053Z,99904.97
2022-11-23T19:54:01.052Z,99911.06
2022-11-23T19:56:29.414Z,99911.06
2022-11-23T19:59:01.273Z,99916.34
2022-11-23T20:01:34.255Z,99915.47
2022-11-23T20:04:09.192Z,99920.72
2022-11-23T20:06:43.442Z,99926.84
2022-11-23T20:09:16.946Z,99916.38
2022-11-23T20:11:49.287Z,99928.63
2022-11-23T20:14:17.809Z,99923.38
2022-11-23T20:16:44.889Z,99922.50
2022-11-23T20:19:11.995Z,99932.97
2022-11-23T20:21:39.310Z,99933.84
2022-11-23T20:24:13.444Z,99938.25
2022-11-23T20:26:41.956Z,99938.25
2022-11-23T20:29:09.710Z,99940.88
2022-11-23T20:31:37.564Z,99933.91
2022-11-23T20:34:07.372Z,99942.66
2022-11-23T20:36:37.423Z,99951.38
2022-11-23T20:39:08.097Z,99947.03
2022-11-23T20:41:37.226Z,99946.16
2022-11-23T20:44:13.444Z,99964.47
2022-11-23T20:49:30.004Z,99956.59
2022-11-23T20:51:57.574Z,99955.75
2022-11-23T20:54:24.541Z,99961.84
2022-11-23T20:56:51.512Z,99961.00
2022-11-23T20:59:19.753Z,99975.00
2022-11-23T21:01:46.942Z,99974.13
2022-11-23T21:04:14.034Z,99973.25
2022-11-23T21:06:41.010Z,99978.44
2022-11-23T21:09:09.777Z,99978.47
2022-11-23T21:11:55.815Z,99975.81
2022-11-23T21:14:28.250Z,99987.16
2022-11-23T21:16:59.487Z,99984.53
2022-11-23T21:19:35.996Z,99992.38
2022-11-23T21:22:14.644Z,99988.03
2022-11-23T21:24:41.763Z,99996.78
2022-11-23T21:27:13.421Z,99990.66
2022-11-23T21:29:40.788Z,100002.00
2022-11-23T21:32:07.970Z,100002.88
2022-11-23T21:34:35.546Z,100001.09
2022-11-23T21:37:02.796Z,100003.69
2022-11-23T21:39:33.181Z,100011.59
2022-11-23T21:42:00.443Z,100015.94
2022-11-23T21:44:27.503Z,100018.56
2022-11-23T21:46:54.648Z,100020.34
2022-11-23T21:49:21.871Z,100023.81
2022-11-23T21:51:49.259Z,100020.31
2022-11-23T21:54:16.562Z,100028.19
2022-11-23T21:56:46.112Z,100036.88
2022-11-23T21:59:13.647Z,100043.88
2022-11-23T22:01:41.991Z,100044.75
2022-11-23T22:04:12.775Z,100049.97
2022-11-23T22:06:42.242Z,100053.47
2022-11-23T22:09:11.578Z,100056.09
2022-11-23T22:11:41.638Z,100056.09
2022-11-23T22:14:12.226Z,100063.97
2022-11-23T22:16:50.309Z,100069.19
2022-11-23T22:19:18.752Z,100063.06
2022-11-23T22:21:46.818Z,100067.44
2022-11-23T22:24:17.054Z,100061.31
2022-11-23T22:26:45.484Z,100067.47
2022-11-23T22:29:13.094Z,100075.34
2022-11-23T22:31:40.742Z,100079.66
2022-11-23T22:34:11.835Z,100083.22
2022-11-23T22:36:39.296Z,100080.59
2022-11-23T22:39:07.713Z,100083.19
2022-11-23T22:41:37.220Z,100081.47
2022-11-23T22:44:07.084Z,100077.97
2022-11-23T22:54:37.243Z,100096.28
2022-11-23T22:57:04.846Z,100098.03
2022-11-23T22:59:31.841Z,100105.88
2022-11-23T23:01:58.958Z,100108.53
2022-11-23T23:04:26.201Z,100099.78
2022-11-23T23:06:53.113Z,100119.91
2022-11-23T23:09:20.093Z,100119.91
2022-11-23T23:11:47.048Z,100118.13
2022-11-23T23:14:14.006Z,100126.03
2022-11-23T23:16:41.167Z,100126.88
2022-11-23T23:19:08.225Z,100129.50
2022-11-23T23:21:35.244Z,100128.63
2022-11-23T23:24:02.251Z,100131.25
2022-11-23T23:26:29.994Z,100126.03
2022-11-23T23:28:59.692Z,100134.75
2022-11-23T23:31:28.133Z,100133.88
2022-11-23T23:33:55.510Z,100129.50
2022-11-23T23:36:23.884Z,100136.50
2022-11-23T23:38:51.355Z,100139.09
2022-11-23T23:41:19.122Z,100142.59
2022-11-23T23:43:48.231Z,100144.34
2022-11-23T23:46:16.176Z,100141.72
2022-11-23T23:48:43.968Z,100141.75
2022-11-23T23:51:13.758Z,100134.78
2022-11-23T23:53:41.870Z,100137.38
2022-11-23T23:56:22.762Z,100128.66
2022-11-23T23:58:49.860Z,100138.25
